Time;durP1;ratioP1;P1;durP2;ratioP2;P2;SDS_P1;SDS_P2;PMS_P1;PMS_P2;Temp;Humidity;BMP_temperature;BMP_pressure;BME280_temperature;BME280_humidity;BME280_pressure;Samples;Min_cycle;Max_cycle;Signal;HPM_P1;HPM_P2
2022/01/31 00:00:10;;;;;;;15.07;6.00;;;2.00;99.90;;;;;;4986672;28;20954;-77
2022/01/31 00:02:36;;;;;;;21.80;7.00;;;2.10;99.90;;;;;;4973278;28;20452;-76
2022/01/31 00:05:03;;;;;;;26.73;6.70;;;2.10;99.90;;;;;;4973214;28;20480;-76
2022/01/31 00:07:30;;;;;;;23.37;5.90;;;2.20;99.90;;;;;;4973170;28;21071;-78
2022/01/31 00:09:58;;;;;;;28.37;5.60;;;2.20;99.90;;;;;;4984072;28;20467;-76
2022/01/31 00:12:29;;;;;;;16.03;5.27;;;2.20;99.90;;;;;;4992847;28;20483;-77
2022/01/31 00:15:02;;;;;;;23.03;5.10;;;2.20;99.90;;;;;;5020338;22;20501;-74
2022/01/31 00:17:28;;;;;;;17.00;4.77;;;2.20;99.90;;;;;;5012821;28;20554;-75
2022/01/31 00:19:55;;;;;;;21.00;4.80;;;2.20;99.90;;;;;;5009062;28;21191;-74
2022/01/31 00:22:22;;;;;;;33.73;7.40;;;2.20;99.90;;;;;;5012247;28;20446;-74
2022/01/31 00:24:49;;;;;;;28.30;4.87;;;2.20;99.90;;;;;;5011437;28;20506;-75
2022/01/31 00:27:17;;;;;;;21.90;5.33;;;2.20;99.90;;;;;;4997135;28;20479;-75
2022/01/31 00:29:44;;;;;;;23.23;5.17;;;2.20;99.90;;;;;;4998668;28;20451;-75
2022/01/31 00:32:10;;;;;;;27.83;5.30;;;2.30;99.90;;;;;;4997087;28;20463;-75
2022/01/31 00:34:37;;;;;;;32.00;5.70;;;2.20;99.90;;;;;;4992635;28;20471;-75
2022/01/31 00:37:04;;;;;;;23.17;4.70;;;2.20;99.90;;;;;;4994088;28;20463;-75
2022/01/31 00:39:34;;;;;;;20.80;5.00;;;2.30;99.90;;;;;;5011883;28;20837;-75
2022/01/31 00:42:02;;;;;;;39.63;5.87;;;2.30;99.90;;;;;;5006704;28;20469;-76
2022/01/31 00:44:40;;;;;;;14.43;4.70;;;2.30;99.90;;;;;;4992020;28;20479;-75
2022/01/31 00:47:17;;;;;;;14.97;5.60;;;2.40;99.90;;;;;;5006104;28;20512;-75
2022/01/31 00:49:49;;;;;;;25.23;6.07;;;2.40;99.90;;;;;;5000917;28;20452;-75
2022/01/31 00:52:16;;;;;;;12.60;4.43;;;2.40;99.90;;;;;;5000765;28;20538;-75
2022/01/31 00:54:43;;;;;;;22.73;4.77;;;2.40;99.90;;;;;;4993611;28;20478;-76
2022/01/31 00:57:10;;;;;;;22.50;5.10;;;2.40;99.90;;;;;;5011026;28;20505;-75
2022/01/31 00:59:37;;;;;;;16.47;4.90;;;2.50;99.90;;;;;;4994507;28;20448;-75
2022/01/31 01:02:04;;;;;;;14.53;4.20;;;2.50;99.90;;;;;;4992284;28;20456;-75
2022/01/31 01:04:32;;;;;;;21.40;5.33;;;2.50;99.90;;;;;;5005425;28;20466;-75
2022/01/31 01:06:59;;;;;;;16.57;4.40;;;2.50;99.90;;;;;;5011280;28;20498;-75
2022/01/31 01:09:25;;;;;;;19.27;4.90;;;2.50;99.90;;;;;;4991936;28;20842;-75
2022/01/31 01:11:52;;;;;;;15.90;5.50;;;2.50;99.90;;;;;;5003733;28;20473;-75
2022/01/31 01:14:19;;;;;;;15.93;5.07;;;2.50;99.90;;;;;;5011233;28;21133;-75
2022/01/31 01:16:47;;;;;;;14.00;4.30;;;2.40;99.90;;;;;;5011983;28;20529;-75
2022/01/31 01:19:13;;;;;;;15.03;4.60;;;2.40;99.90;;;;;;4995135;28;21010;-75
2022/01/31 01:21:40;;;;;;;12.07;4.07;;;2.40;99.90;;;;;;5011728;28;20877;-75
2022/01/31 01:24:07;;;;;;;18.57;5.27;;;2.40;99.90;;;;;;5010907;28;20686;-76
2022/01/31 01:26:34;;;;;;;13.97;4.30;;;2.40;99.90;;;;;;5011569;28;20454;-75
2022/01/31 01:29:00;;;;;;;12.97;4.40;;;2.40;99.90;;;;;;5009244;28;20483;-75
2022/01/31 01:31:27;;;;;;;17.20;4.70;;;2.40;99.90;;;;;;5010787;28;20450;-75
2022/01/31 01:33:55;;;;;;;14.63;5.00;;;2.40;99.90;;;;;;5011187;28;20458;-76
2022/01/31 01:36:22;;;;;;;9.80;5.17;;;2.40;99.90;;;;;;5011965;28;20478;-75
2022/01/31 01:38:48;;;;;;;14.70;4.27;;;2.30;99.90;;;;;;5012024;28;20578;-75
2022/01/31 01:41:15;;;;;;;7.60;4.33;;;2.30;99.90;;;;;;5011319;28;20469;-75
2022/01/31 01:43:42;;;;;;;23.43;5.10;;;2.30;99.90;;;;;;5011311;28;20454;-76
2022/01/31 01:46:09;;;;;;;13.23;4.80;;;2.20;99.90;;;;;;5010200;28;20504;-75
2022/01/31 01:48:35;;;;;;;17.23;5.50;;;2.20;99.90;;;;;;5010442;28;20908;-76
2022/01/31 01:51:04;;;;;;;21.30;6.37;;;2.10;99.90;;;;;;5011172;28;20512;-75
2022/01/31 01:53:31;;;;;;;16.83;5.87;;;2.00;99.90;;;;;;5011575;28;20805;-75
2022/01/31 01:55:58;;;;;;;27.57;5.70;;;1.90;99.90;;;;;;5010955;28;20887;-75
2022/01/31 01:58:29;;;;;;;17.63;5.87;;;1.90;99.90;;;;;;5004917;28;20885;-75
2022/01/31 02:01:01;;;;;;;21.70;5.53;;;1.80;99.90;;;;;;5001283;28;20455;-74
2022/01/31 02:03:29;;;;;;;26.13;6.33;;;1.80;99.90;;;;;;4995651;28;20462;-75
2022/01/31 02:05:56;;;;;;;22.67;6.40;;;1.80;99.90;;;;;;4995100;28;20467;-76
2022/01/31 02:08:26;;;;;;;26.03;7.10;;;1.70;99.90;;;;;;5001535;28;20482;-76
2022/01/31 02:10:53;;;;;;;18.07;6.70;;;1.70;99.90;;;;;;5015749;28;20915;-75
2022/01/31 02:13:20;;;;;;;15.53;5.70;;;1.70;99.90;;;;;;5007274;28;20848;-75
2022/01/31 02:15:51;;;;;;;13.47;5.93;;;1.70;99.90;;;;;;5011520;28;20860;-76
2022/01/31 02:18:20;;;;;;;21.13;6.40;;;1.70;99.90;;;;;;5006247;28;20454;-76
2022/01/31 02:20:48;;;;;;;27.77;5.80;;;1.70;99.90;;;;;;5014651;28;20450;-76
2022/01/31 02:23:17;;;;;;;30.90;5.77;;;1.70;99.90;;;;;;5014560;28;20458;-76
2022/01/31 02:25:55;;;;;;;17.20;5.50;;;1.70;99.90;;;;;;5014212;28;20872;-76
2022/01/31 02:28:24;;;;;;;15.40;5.43;;;1.70;99.90;;;;;;4995867;28;21022;-76
2022/01/31 02:30:51;;;;;;;16.27;5.33;;;1.80;99.90;;;;;;5011288;28;20461;-76
2022/01/31 02:33:18;;;;;;;22.43;5.87;;;1.70;99.90;;;;;;5013420;28;20453;-76
2022/01/31 02:35:47;;;;;;;21.83;5.00;;;1.70;99.90;;;;;;5005698;28;20987;-75
2022/01/31 02:38:14;;;;;;;19.73;5.57;;;1.70;99.90;;;;;;5004449;28;20454;-75
2022/01/31 02:40:41;;;;;;;20.00;5.27;;;1.70;99.90;;;;;;5013903;28;20527;-75
2022/01/31 02:43:08;;;;;;;19.47;5.10;;;1.60;99.90;;;;;;5013197;28;20508;-76
2022/01/31 02:45:35;;;;;;;18.67;5.50;;;1.60;99.90;;;;;;5014267;28;20554;-76
2022/01/31 02:48:03;;;;;;;22.10;6.03;;;1.60;99.90;;;;;;5005043;28;20461;-76
2022/01/31 02:50:30;;;;;;;16.97;4.67;;;1.60;99.90;;;;;;4995127;28;20980;-75
2022/01/31 02:53:11;;;;;;;16.90;3.73;;;1.70;99.90;;;;;;4997962;28;21020;-75
2022/01/31 02:55:38;;;;;;;14.60;3.90;;;1.80;99.90;;;;;;5011174;28;20478;-76
2022/01/31 02:58:05;;;;;;;11.30;3.97;;;2.10;99.90;;;;;;5013127;28;20450;-76
2022/01/31 03:00:32;;;;;;;9.80;3.60;;;2.20;99.90;;;;;;5012890;28;20524;-75
2022/01/31 03:02:58;;;;;;;12.30;4.37;;;2.40;99.90;;;;;;5011966;28;20593;-75
2022/01/31 03:05:25;;;;;;;17.20;3.97;;;2.50;99.90;;;;;;5012181;28;20485;-75
2022/01/31 03:07:52;;;;;;;12.90;3.73;;;2.60;99.90;;;;;;5012608;28;20463;-76
2022/01/31 03:10:20;;;;;;;15.83;3.50;;;2.70;99.90;;;;;;5012608;28;20485;-75
2022/01/31 03:12:47;;;;;;;17.40;3.80;;;2.80;99.90;;;;;;5013483;28;20895;-75
2022/01/31 03:15:13;;;;;;;16.13;4.33;;;2.90;99.90;;;;;;5002335;28;20491;-76
2022/01/31 03:17:45;;;;;;;5.30;3.43;;;2.90;99.90;;;;;;4998826;28;20501;-75
2022/01/31 03:20:12;;;;;;;17.37;3.90;;;2.90;99.90;;;;;;5011235;28;20450;-75
2022/01/31 03:22:39;;;;;;;13.07;3.63;;;2.90;99.90;;;;;;5012946;28;20457;-75
2022/01/31 03:25:06;;;;;;;16.83;4.20;;;2.90;99.90;;;;;;5012787;28;20474;-76
2022/01/31 03:27:34;;;;;;;15.83;4.40;;;3.00;99.90;;;;;;5010017;28;20517;-76
2022/01/31 03:30:00;;;;;;;10.07;3.50;;;2.90;99.90;;;;;;5003299;28;20486;-75
2022/01/31 03:32:27;;;;;;;14.10;3.57;;;2.90;99.90;;;;;;5013257;28;20454;-75
2022/01/31 03:34:54;;;;;;;11.93;4.53;;;2.90;99.90;;;;;;5013273;28;20557;-76
2022/01/31 03:37:21;;;;;;;15.53;4.27;;;2.90;99.90;;;;;;5012229;28;20503;-76
2022/01/31 03:39:47;;;;;;;18.57;4.83;;;2.90;99.90;;;;;;5013237;28;20457;-76
2022/01/31 03:42:18;;;;;;;15.00;4.00;;;2.90;99.90;;;;;;5012905;28;20454;-76
2022/01/31 03:44:47;;;;;;;12.23;3.50;;;2.90;99.90;;;;;;4994822;28;20475;-76
2022/01/31 03:47:13;;;;;;;11.47;3.87;;;2.90;99.90;;;;;;5012909;28;20471;-76
2022/01/31 03:49:40;;;;;;;18.43;3.80;;;2.90;99.90;;;;;;5012273;28;20508;-76
2022/01/31 03:52:07;;;;;;;17.87;4.00;;;2.80;99.90;;;;;;5010869;28;20458;-76
2022/01/31 03:54:34;;;;;;;7.93;3.30;;;2.90;99.90;;;;;;4993780;28;20479;-76
2022/01/31 03:57:00;;;;;;;20.40;3.93;;;2.90;99.90;;;;;;4995237;28;20504;-75
2022/01/31 03:59:27;;;;;;;9.73;3.53;;;2.80;99.90;;;;;;5012786;28;20524;-76
2022/01/31 04:01:55;;;;;;;12.67;5.13;;;2.90;99.90;;;;;;5002283;28;20869;-75
2022/01/31 04:04:22;;;;;;;15.83;5.37;;;2.80;99.90;;;;;;5009126;28;20547;-74
2022/01/31 04:06:49;;;;;;;15.97;5.23;;;2.60;99.90;;;;;;4993509;28;20455;-74
2022/01/31 04:09:15;;;;;;;10.77;5.33;;;2.30;99.90;;;;;;4993968;28;20487;-74
2022/01/31 04:11:43;;;;;;;30.80;5.33;;;2.10;99.90;;;;;;4992994;28;20490;-74
2022/01/31 04:14:09;;;;;;;18.73;5.20;;;1.90;99.90;;;;;;4996112;28;20970;-75
2022/01/31 04:16:36;;;;;;;16.17;5.30;;;1.80;99.90;;;;;;5012469;28;20947;-75
2022/01/31 04:19:04;;;;;;;18.43;5.07;;;1.80;99.90;;;;;;5001922;28;20446;-75
2022/01/31 04:21:31;;;;;;;11.97;5.27;;;1.80;99.90;;;;;;5011977;28;20485;-75
2022/01/31 04:23:58;;;;;;;21.37;4.67;;;1.80;99.90;;;;;;5012030;28;20462;-76
2022/01/31 04:26:32;;;;;;;17.03;4.20;;;1.80;99.90;;;;;;4992762;28;20534;-75
2022/01/31 04:29:04;;;;;;;16.20;4.97;;;2.00;99.90;;;;;;5007944;28;20494;-75
2022/01/31 04:31:38;;;;;;;16.87;5.63;;;2.20;99.90;;;;;;5000663;28;20462;-76
2022/01/31 04:34:06;;;;;;;14.50;4.67;;;2.30;99.90;;;;;;4996233;28;20474;-76
2022/01/31 04:36:34;;;;;;;15.33;5.13;;;2.30;99.90;;;;;;4992545;28;20451;-75
2022/01/31 04:39:00;;;;;;;13.77;5.40;;;2.30;99.90;;;;;;4993081;28;20451;-75
2022/01/31 04:41:27;;;;;;;16.27;4.80;;;2.30;99.90;;;;;;5003412;28;20459;-75
2022/01/31 04:43:57;;;;;;;15.10;4.80;;;2.20;99.90;;;;;;5011987;28;20458;-75
2022/01/31 04:46:24;;;;;;;11.60;5.33;;;2.10;99.90;;;;;;5011500;28;20927;-75
2022/01/31 04:48:50;;;;;;;24.47;5.53;;;2.00;99.90;;;;;;5011392;28;20512;-75
2022/01/31 04:51:18;;;;;;;12.80;5.00;;;1.90;99.90;;;;;;5007823;28;20849;-75
2022/01/31 04:53:45;;;;;;;15.33;5.80;;;1.80;99.90;;;;;;4995279;28;20455;-75
2022/01/31 04:56:12;;;;;;;18.97;5.60;;;1.80;99.90;;;;;;5010365;28;20528;-75
2022/01/31 04:58:40;;;;;;;17.93;6.07;;;1.70;99.90;;;;;;5006258;28;20537;-75
2022/01/31 05:01:07;;;;;;;22.70;6.90;;;1.60;99.90;;;;;;4997492;28;20455;-75
2022/01/31 05:03:33;;;;;;;16.80;5.33;;;1.50;99.90;;;;;;4992837;28;20479;-75
2022/01/31 05:06:00;;;;;;;17.50;5.17;;;1.50;99.90;;;;;;4992878;28;20471;-75
2022/01/31 05:08:29;;;;;;;21.10;5.70;;;1.40;99.90;;;;;;5011188;28;20462;-75
2022/01/31 05:10:57;;;;;;;19.63;5.73;;;1.30;99.90;;;;;;5005657;28;20489;-75
2022/01/31 05:13:24;;;;;;;15.57;6.13;;;1.20;99.90;;;;;;5010481;28;20450;-75
2022/01/31 05:15:53;;;;;;;11.97;5.67;;;1.20;99.90;;;;;;4992638;28;20487;-75
2022/01/31 05:18:21;;;;;;;21.27;6.47;;;1.10;99.90;;;;;;5002456;28;20485;-75
2022/01/31 05:20:48;;;;;;;25.63;6.40;;;1.10;99.90;;;;;;5011914;28;20550;-75
2022/01/31 05:23:15;;;;;;;19.03;5.80;;;1.10;99.90;;;;;;5012113;28;20455;-75
2022/01/31 05:25:43;;;;;;;13.30;5.57;;;1.10;99.90;;;;;;5012237;28;21020;-75
2022/01/31 05:28:09;;;;;;;26.63;5.83;;;1.10;99.90;;;;;;5005299;28;20459;-75
2022/01/31 05:30:36;;;;;;;21.23;6.20;;;1.00;99.90;;;;;;4996698;28;20533;-75
2022/01/31 05:33:03;;;;;;;14.57;5.73;;;1.00;99.90;;;;;;5007540;28;20457;-75
2022/01/31 05:35:30;;;;;;;22.43;6.50;;;1.00;99.90;;;;;;5012148;28;20882;-75
2022/01/31 05:37:56;;;;;;;14.43;5.60;;;1.10;99.90;;;;;;5010995;28;20520;-75
2022/01/31 05:40:23;;;;;;;21.33;5.77;;;1.10;99.90;;;;;;4996696;28;20999;-75
2022/01/31 05:42:51;;;;;;;24.13;5.70;;;1.20;99.90;;;;;;5010038;28;20450;-75
2022/01/31 05:45:18;;;;;;;12.50;6.03;;;1.10;99.90;;;;;;5006024;28;20532;-76
2022/01/31 05:47:44;;;;;;;12.97;6.03;;;1.10;99.90;;;;;;5015622;28;20462;-77
2022/01/31 05:50:11;;;;;;;21.27;5.63;;;1.20;99.90;;;;;;4999930;28;20486;-76
2022/01/31 05:52:38;;;;;;;11.80;5.50;;;1.20;99.90;;;;;;4996187;28;20466;-75
2022/01/31 05:55:06;;;;;;;13.67;6.67;;;1.30;99.90;;;;;;5003991;28;20557;-76
2022/01/31 05:57:33;;;;;;;9.70;5.30;;;1.30;99.90;;;;;;5015665;28;20450;-76
2022/01/31 06:00:01;;;;;;;8.50;5.00;;;1.40;99.90;;;;;;5005259;28;20450;-76
2022/01/31 06:02:27;;;;;;;8.47;4.37;;;1.40;99.90;;;;;;5016052;28;20914;-76
2022/01/31 06:04:54;;;;;;;9.73;3.80;;;1.60;99.90;;;;;;5015243;28;20990;-76
2022/01/31 06:07:21;;;;;;;4.23;3.70;;;1.70;99.90;;;;;;5015038;28;20457;-76
2022/01/31 06:09:48;;;;;;;4.43;3.40;;;2.00;99.90;;;;;;5007803;28;20499;-76
2022/01/31 06:12:15;;;;;;;3.90;3.10;;;2.10;99.90;;;;;;5014011;28;20457;-76
2022/01/31 06:14:42;;;;;;;3.70;3.17;;;2.10;99.90;;;;;;5038054;22;20572;-73
2022/01/31 06:17:10;;;;;;;3.93;3.20;;;2.30;99.90;;;;;;5009291;28;20833;-74
2022/01/31 06:19:37;;;;;;;3.17;2.90;;;2.40;99.90;;;;;;5015082;28;20927;-74
2022/01/31 06:22:04;;;;;;;5.10;3.77;;;2.40;99.90;;;;;;5006841;28;20447;-73
2022/01/31 06:24:30;;;;;;;5.70;3.57;;;2.50;99.90;;;;;;4996346;28;20964;-73
2022/01/31 06:26:58;;;;;;;7.97;3.30;;;2.50;99.90;;;;;;5003132;28;20478;-73
2022/01/31 06:29:26;;;;;;;3.97;3.17;;;2.60;99.90;;;;;;5009914;28;20494;-75
2022/01/31 06:31:53;;;;;;;5.00;4.60;;;2.60;99.90;;;;;;5008684;28;21004;-72
2022/01/31 06:34:21;;;;;;;8.57;3.00;;;2.60;99.90;;;;;;5015771;28;20450;-72
2022/01/31 06:36:47;;;;;;;2.83;2.63;;;2.60;99.90;;;;;;5014131;28;20474;-72
2022/01/31 06:39:14;;;;;;;3.90;2.97;;;2.70;99.90;;;;;;5010572;28;20439;-72
2022/01/31 06:41:41;;;;;;;3.63;3.30;;;2.70;99.90;;;;;;5006913;28;20508;-72
2022/01/31 06:44:07;;;;;;;3.07;2.87;;;2.70;99.90;;;;;;4999595;28;20506;-73
2022/01/31 06:46:34;;;;;;;5.77;2.60;;;2.80;99.90;;;;;;5012763;28;20470;-73
2022/01/31 06:49:01;;;;;;;3.10;2.90;;;2.80;99.90;;;;;;5010373;28;20496;-73
2022/01/31 06:51:30;;;;;;;4.30;3.40;;;2.80;99.90;;;;;;5008537;28;20908;-73
2022/01/31 06:53:59;;;;;;;4.97;3.60;;;2.80;99.90;;;;;;5000063;28;20466;-72
2022/01/31 06:56:29;;;;;;;7.03;3.70;;;2.80;99.90;;;;;;5007568;28;20600;-71
2022/01/31 06:58:57;;;;;;;5.23;3.50;;;2.90;99.90;;;;;;5011038;28;20507;-71
2022/01/31 07:01:25;;;;;;;4.63;3.73;;;2.90;99.90;;;;;;5002423;28;20461;-70
2022/01/31 07:03:53;;;;;;;4.53;3.60;;;2.90;99.90;;;;;;5004383;28;20466;-70
2022/01/31 07:06:19;;;;;;;4.83;3.87;;;3.00;99.90;;;;;;5010602;28;20505;-71
2022/01/31 07:08:48;;;;;;;4.57;3.70;;;3.00;99.90;;;;;;5011498;28;20496;-71
2022/01/31 07:11:20;;;;;;;5.63;4.17;;;3.00;99.90;;;;;;5001568;28;20547;-71
2022/01/31 07:13:48;;;;;;;4.90;3.40;;;3.10;99.90;;;;;;5008572;28;21014;-72
2022/01/31 07:16:15;;;;;;;5.27;4.00;;;3.20;99.90;;;;;;5002131;28;20595;-71
2022/01/31 07:18:43;;;;;;;7.10;4.67;;;3.20;99.90;;;;;;5006885;28;21274;-71
2022/01/31 07:21:13;;;;;;;2.87;2.67;;;3.20;99.90;;;;;;5006801;28;20486;-71
2022/01/31 07:23:52;;;;;;;6.13;4.07;;;3.20;99.90;;;;;;5010522;28;20551;-70
2022/01/31 07:26:20;;;;;;;8.47;3.60;;;3.30;99.90;;;;;;5000723;28;21048;-70
2022/01/31 07:28:47;;;;;;;8.87;4.90;;;3.30;99.90;;;;;;5009124;28;20509;-71
2022/01/31 07:31:14;;;;;;;14.03;3.90;;;3.40;99.90;;;;;;4995097;28;20545;-73
2022/01/31 07:33:42;;;;;;;6.83;4.30;;;3.40;99.90;;;;;;5009296;28;20454;-71
2022/01/31 07:36:09;;;;;;;6.90;3.83;;;3.40;99.90;;;;;;5010337;28;20478;-73
2022/01/31 07:38:36;;;;;;;9.63;4.33;;;3.40;99.90;;;;;;4992070;28;20483;-71
2022/01/31 07:41:03;;;;;;;7.17;3.93;;;3.40;99.90;;;;;;5004114;28;20488;-71
2022/01/31 07:43:33;;;;;;;5.40;4.00;;;3.40;99.90;;;;;;4993581;28;20514;-73
2022/01/31 07:46:00;;;;;;;8.60;3.47;;;3.70;99.90;;;;;;4996142;28;20483;-70
2022/01/31 07:48:29;;;;;;;9.20;4.20;;;4.10;99.90;;;;;;4991815;28;20750;-72
2022/01/31 07:50:56;;;;;;;6.00;3.70;;;4.20;99.90;;;;;;5000593;28;20482;-70
2022/01/31 07:53:22;;;;;;;4.57;3.70;;;4.10;99.90;;;;;;5004052;28;20509;-70
2022/01/31 07:55:49;;;;;;;8.00;4.00;;;4.00;99.90;;;;;;4997818;28;20474;-70
2022/01/31 07:58:16;;;;;;;10.43;4.43;;;3.90;99.90;;;;;;5005229;28;20477;-70
2022/01/31 08:00:44;;;;;;;8.17;3.60;;;3.90;99.90;;;;;;5004255;28;20454;-71
2022/01/31 08:03:11;;;;;;;3.93;3.37;;;3.90;99.90;;;;;;4997802;28;21005;-71
2022/01/31 08:05:38;;;;;;;7.83;3.73;;;3.90;99.90;;;;;;5002941;28;20478;-70
2022/01/31 08:08:05;;;;;;;6.13;3.93;;;3.90;99.90;;;;;;5000239;28;20483;-70
2022/01/31 08:10:35;;;;;;;5.77;3.67;;;3.90;99.90;;;;;;5008347;28;20551;-72
2022/01/31 08:13:04;;;;;;;8.20;3.83;;;3.90;99.90;;;;;;4998243;28;20518;-70
2022/01/31 08:15:33;;;;;;;9.53;3.50;;;3.90;99.90;;;;;;4997094;28;20478;-71
2022/01/31 08:18:01;;;;;;;9.30;3.90;;;3.90;99.90;;;;;;5003169;28;21016;-70
2022/01/31 08:20:28;;;;;;;10.00;3.50;;;3.90;99.90;;;;;;5002119;28;20454;-70
2022/01/31 08:22:54;;;;;;;3.33;2.80;;;4.00;99.90;;;;;;5012300;28;20933;-70
2022/01/31 08:25:21;;;;;;;6.40;3.30;;;4.00;99.90;;;;;;5010709;28;20470;-69
2022/01/31 08:27:52;;;;;;;9.87;4.00;;;4.00;99.90;;;;;;4992387;28;20614;-70
2022/01/31 08:30:23;;;;;;;8.23;3.93;;;4.10;99.90;;;;;;5001475;28;20955;-70
2022/01/31 08:32:59;;;;;;;13.23;4.23;;;4.10;99.90;;;;;;5011217;28;20489;-70
2022/01/31 08:38:12;;;;;;;13.07;3.57;;;4.20;99.90;;;;;;4998398;28;20473;-68
2022/01/31 08:40:39;;;;;;;4.53;3.03;;;4.20;99.90;;;;;;4995648;28;20497;-68
2022/01/31 08:43:06;;;;;;;3.57;3.27;;;4.20;99.90;;;;;;5004213;28;20463;-68
2022/01/31 08:45:34;;;;;;;9.10;3.40;;;4.20;99.90;;;;;;5005895;28;20535;-71
2022/01/31 08:48:01;;;;;;;5.90;3.47;;;4.20;99.90;;;;;;4990511;28;20506;-68
2022/01/31 08:50:29;;;;;;;6.93;2.80;;;4.20;99.90;;;;;;4995856;28;20544;-68
2022/01/31 08:52:56;;;;;;;3.43;2.53;;;4.20;99.90;;;;;;5002385;28;20950;-67
2022/01/31 08:55:23;;;;;;;10.17;3.53;;;4.20;99.90;;;;;;5003629;28;20507;-67
2022/01/31 08:57:53;;;;;;;11.40;3.27;;;4.10;99.90;;;;;;5000677;28;20460;-67
2022/01/31 09:00:20;;;;;;;6.83;3.30;;;4.00;99.90;;;;;;5006280;28;20450;-67
2022/01/31 09:03:00;;;;;;;6.33;3.30;;;3.90;99.90;;;;;;5010148;28;20454;-67
2022/01/31 09:05:27;;;;;;;3.83;2.70;;;3.90;99.90;;;;;;5008390;28;21139;-68
2022/01/31 09:07:55;;;;;;;3.13;2.83;;;3.90;99.90;;;;;;4990434;28;20454;-68
2022/01/31 09:10:21;;;;;;;8.77;3.13;;;4.00;99.90;;;;;;4996916;28;20490;-68
2022/01/31 09:12:48;;;;;;;6.60;2.90;;;4.00;99.90;;;;;;4996292;28;20450;-68
2022/01/31 09:15:15;;;;;;;20.63;2.90;;;3.90;99.90;;;;;;4998200;28;20641;-68
2022/01/31 09:17:42;;;;;;;2.70;2.47;;;3.90;99.90;;;;;;5005412;28;20447;-68
2022/01/31 09:20:10;;;;;;;4.20;2.40;;;3.90;99.90;;;;;;4993166;28;20966;-67
2022/01/31 09:22:37;;;;;;;2.87;2.60;;;3.80;99.90;;;;;;5007847;28;21097;-67
2022/01/31 09:25:06;;;;;;;6.07;2.70;;;3.80;99.90;;;;;;5007928;28;20470;-67
2022/01/31 09:27:33;;;;;;;3.10;2.30;;;3.80;99.90;;;;;;4989590;28;20455;-68
2022/01/31 09:30:00;;;;;;;2.30;2.20;;;3.80;99.90;;;;;;4998364;28;20458;-67
2022/01/31 09:32:27;;;;;;;2.37;2.17;;;3.80;99.90;;;;;;5009135;28;20514;-71
2022/01/31 09:34:54;;;;;;;2.47;2.17;;;3.70;99.90;;;;;;5005990;28;20454;-71
2022/01/31 09:37:21;;;;;;;2.30;2.20;;;3.80;99.90;;;;;;4995004;28;20466;-71
2022/01/31 09:39:48;;;;;;;3.70;2.20;;;3.70;99.90;;;;;;5006752;28;20462;-71
2022/01/31 09:42:26;;;;;;;2.70;1.97;;;3.80;99.90;;;;;;5009574;28;20490;-72
2022/01/31 09:45:07;;;;;;;1.77;1.67;;;3.80;99.90;;;;;;5006541;28;20458;-72
2022/01/31 09:50:14;;;;;;;2.53;2.37;;;4.00;99.90;;;;;;5007414;28;20437;-71
2022/01/31 09:52:41;;;;;;;1.93;1.83;;;4.10;99.90;;;;;;5008807;28;21155;-71
2022/01/31 09:55:08;;;;;;;2.27;2.13;;;4.20;99.90;;;;;;5001748;28;20470;-71
2022/01/31 09:57:37;;;;;;;3.20;2.10;;;4.10;99.90;;;;;;4990065;28;20549;-71
2022/01/31 10:00:05;;;;;;;2.10;2.00;;;4.10;99.90;;;;;;4995858;28;20451;-71
2022/01/31 10:02:32;;;;;;;2.67;2.20;;;4.00;99.90;;;;;;4998809;28;20505;-71
2022/01/31 10:04:59;;;;;;;5.23;1.90;;;3.90;99.90;;;;;;4996176;28;20478;-71
2022/01/31 10:07:43;;;;;;;2.00;1.90;;;3.90;99.90;;;;;;4999306;28;21014;-71
2022/01/31 10:10:18;;;;;;;4.73;2.27;;;3.80;99.90;;;;;;5008230;28;20460;-71
2022/01/31 10:18:11;;;;;;;2.50;2.30;;;3.80;99.90;;;;;;5003187;28;20527;-71
2022/01/31 10:20:37;;;;;;;2.10;2.00;;;3.80;99.90;;;;;;4998237;28;20992;-71
2022/01/31 10:23:07;;;;;;;3.67;2.70;;;3.80;99.90;;;;;;5000787;28;20873;-71
2022/01/31 10:25:34;;;;;;;5.63;2.17;;;3.80;99.90;;;;;;5003981;28;20474;-71
2022/01/31 10:28:10;;;;;;;2.47;2.20;;;3.80;99.90;;;;;;4999642;28;20446;-71
2022/01/31 10:30:37;;;;;;;2.20;2.00;;;3.80;99.90;;;;;;5003484;28;20504;-71
2022/01/31 10:33:09;;;;;;;1.93;1.83;;;3.80;99.90;;;;;;5003359;28;20903;-70
2022/01/31 10:35:39;;;;;;;2.10;2.00;;;3.80;99.90;;;;;;5008274;28;20477;-71
2022/01/31 10:38:11;;;;;;;3.53;2.23;;;3.90;99.90;;;;;;4993375;28;20467;-70
2022/01/31 10:44:09;;;;;;;2.17;2.00;;;4.00;99.90;;;;;;4996984;28;20438;-70
2022/01/31 10:50:40;;;;;;;1.87;1.77;;;4.00;99.90;;;;;;5000926;28;20985;-70
2022/01/31 10:52:22;;;;;;;1.70;1.60;;;4.20;99.90;;;;;;4993721;28;20486;-70
2022/01/31 10:54:52;;;;;;;2.03;1.73;;;4.20;99.90;;;;;;5006692;28;20854;-70
2022/01/31 10:57:22;;;;;;;1.80;1.70;;;4.20;99.90;;;;;;5012602;28;20454;-70
2022/01/31 10:59:52;;;;;;;1.80;1.70;;;4.20;99.90;;;;;;5010493;28;20450;-70
2022/01/31 11:02:21;;;;;;;2.90;1.80;;;4.20;99.90;;;;;;4996790;28;20462;-70
2022/01/31 11:04:49;;;;;;;2.97;1.40;;;4.10;99.90;;;;;;5011807;28;20455;-70
2022/01/31 11:07:20;;;;;;;3.97;1.80;;;4.10;99.90;;;;;;5010374;28;20458;-70
2022/01/31 11:09:49;;;;;;;1.70;1.40;;;4.10;99.90;;;;;;4999168;28;21070;-70
2022/01/31 11:12:16;;;;;;;1.63;1.53;;;4.00;99.90;;;;;;4992303;28;20491;-70
2022/01/31 11:14:46;;;;;;;2.00;1.90;;;4.00;99.90;;;;;;5009445;28;20513;-70
2022/01/31 11:17:16;;;;;;;1.60;1.50;;;4.00;99.90;;;;;;4995938;28;20539;-70
2022/01/31 11:19:45;;;;;;;3.70;1.70;;;3.90;99.90;;;;;;4993359;28;20452;-70
2022/01/31 11:22:14;;;;;;;2.90;1.67;;;4.00;99.90;;;;;;5013048;28;20835;-69
2022/01/31 11:24:46;;;;;;;2.00;1.90;;;4.00;99.90;;;;;;5013999;28;20450;-69
2022/01/31 11:27:14;;;;;;;1.80;1.70;;;4.00;99.90;;;;;;5012540;28;20481;-70
2022/01/31 11:29:45;;;;;;;1.50;1.40;;;4.00;99.90;;;;;;5011087;28;20454;-70
2022/01/31 11:32:14;;;;;;;2.47;1.37;;;4.00;99.90;;;;;;5003944;28;20487;-71
2022/01/31 11:34:42;;;;;;;1.50;1.40;;;4.00;99.90;;;;;;4998362;28;20485;-71
2022/01/31 11:37:10;;;;;;;3.70;1.83;;;4.00;99.90;;;;;;4997204;28;20455;-70
2022/01/31 11:39:38;;;;;;;2.80;1.93;;;4.00;99.90;;;;;;5003947;28;20538;-71
2022/01/31 11:42:06;;;;;;;1.60;1.40;;;4.00;99.90;;;;;;5011623;28;20892;-70
2022/01/31 11:44:45;;;;;;;2.00;1.90;;;4.00;99.90;;;;;;5012096;28;20458;-71
2022/01/31 11:47:14;;;;;;;1.67;1.30;;;4.10;99.90;;;;;;5007304;28;20450;-70
2022/01/31 11:49:45;;;;;;;1.70;1.60;;;4.10;99.90;;;;;;5012489;28;20460;-70
2022/01/31 11:52:12;;;;;;;1.60;1.50;;;4.20;99.90;;;;;;5012652;28;20904;-70
2022/01/31 11:54:47;;;;;;;3.83;1.80;;;4.20;99.90;;;;;;5013506;28;20450;-71
2022/01/31 11:57:16;;;;;;;1.43;1.33;;;4.30;99.90;;;;;;4994522;28;20541;-71
2022/01/31 11:59:43;;;;;;;1.53;1.43;;;4.40;99.90;;;;;;4995664;28;20513;-72
2022/01/31 12:02:15;;;;;;;1.50;1.40;;;4.40;99.90;;;;;;5000216;28;20994;-71
2022/01/31 12:04:45;;;;;;;9.17;1.90;;;4.40;99.90;;;;;;5013691;28;20458;-72
2022/01/31 12:07:39;;;;;;;2.53;1.40;;;4.50;99.90;;;;;;4994242;28;21127;-72
2022/01/31 12:10:08;;;;;;;1.57;1.30;;;4.60;99.90;;;;;;5001751;28;20508;-72
2022/01/31 12:12:45;;;;;;;2.80;1.60;;;4.50;99.90;;;;;;5007715;28;20510;-69
2022/01/31 12:15:41;;;;;;;2.03;1.40;;;4.60;99.90;;;;;;4999957;28;20589;-71
2022/01/31 12:18:44;;;;;;;1.53;1.43;;;4.60;99.90;;;;;;5008772;28;20956;-71
2022/01/31 12:23:58;;;;;;;1.40;1.10;;;4.50;99.90;;;;;;5040985;22;20556;-72
2022/01/31 12:27:07;;;;;;;1.93;1.30;;;4.50;99.90;;;;;;5031070;28;20457;-74
2022/01/31 12:29:37;;;;;;;8.73;1.20;;;4.40;99.90;;;;;;5017173;28;20454;-73
2022/01/31 12:32:13;;;;;;;1.20;1.10;;;4.40;99.90;;;;;;5026903;28;20481;-73
2022/01/31 12:34:48;;;;;;;3.47;1.10;;;4.50;99.90;;;;;;5010166;28;20481;-71
2022/01/31 12:37:22;;;;;;;1.83;1.43;;;4.50;99.90;;;;;;5000080;28;20569;-73
2022/01/31 12:40:02;;;;;;;1.40;1.30;;;4.50;99.90;;;;;;5004314;28;20955;-73
2022/01/31 12:46:07;;;;;;;1.37;1.10;;;4.60;99.90;;;;;;5006540;28;20461;-72
2022/01/31 12:48:35;;;;;;;1.47;1.37;;;4.60;99.90;;;;;;5011976;28;20485;-73
2022/01/31 12:51:07;;;;;;;3.87;1.40;;;4.60;99.90;;;;;;5011570;28;20893;-72
2022/01/31 12:53:47;;;;;;;4.17;1.70;;;4.50;99.90;;;;;;4996141;28;20505;-72
2022/01/31 12:56:24;;;;;;;1.73;1.30;;;4.50;99.90;;;;;;5012001;28;21049;-72
2022/01/31 12:58:58;;;;;;;1.23;1.13;;;4.60;99.90;;;;;;4997849;28;20446;-75
2022/01/31 13:01:27;;;;;;;1.30;1.20;;;4.80;99.90;;;;;;5001861;28;20501;-74
2022/01/31 13:03:55;;;;;;;1.33;1.23;;;4.90;99.90;;;;;;5002061;28;21083;-73
2022/01/31 13:06:28;;;;;;;1.47;1.37;;;5.00;99.90;;;;;;5003734;28;20496;-74
2022/01/31 13:08:55;;;;;;;3.40;1.23;;;4.80;99.90;;;;;;4995336;28;20454;-75
2022/01/31 13:11:22;;;;;;;1.30;1.20;;;4.80;99.90;;;;;;5011002;28;20496;-74
2022/01/31 13:13:49;;;;;;;1.60;1.30;;;4.70;99.90;;;;;;5011692;28;20486;-71
2022/01/31 13:16:16;;;;;;;1.30;1.20;;;4.60;99.90;;;;;;5010795;28;20462;-75
2022/01/31 13:18:45;;;;;;;1.40;1.30;;;4.60;99.90;;;;;;5011036;28;20513;-73
2022/01/31 13:21:13;;;;;;;3.10;1.70;;;4.60;99.90;;;;;;5010753;28;20451;-73
2022/01/31 13:23:43;;;;;;;1.57;1.47;;;4.60;99.90;;;;;;5010894;28;20494;-74